Tiempo atmosférico en la estación meteorológica de Castejon De Valdejasa, Zaragoza (442 m.)



Fecha
DESCASC
Temp. máxima en grados centígrados (hora)
DESCASC
Temp. mínima en grados centígrados (hora)
DESCASC
Temp. media en grados centígrados
DESCASC
Racha de viento máxima en m/sg (hora)
DESCASC
Velocidad máxima media en intervalos de 10 minutos(hora)
DESCASC
Precipitaciones diarias en mm
DESCASC
Precipitaciones de 00:00 a 06:00 en mm
DESCASC
Precipitaciones de 06:00 a 12:00 en mm
DESCASC
Precipitaciones de 12:00 a 18:00 en mm
DESCASC
Precipitaciones de 18:00 a 24:00 en mm
DESCASC
11-08-2020 29.3 (15:10) 21.4 (08:20) 25.3 15.83 (10:40) 11.39 (10:40) 0.2 0 0.2 0 0
10-08-2020 33.7 (14:00) 24 (07:20) 28.9 12.5 (17:50) 9.17 (18:50) 0 0 0 0 0
09-08-2020 36.5 (16:30) 19.8 (07:20) 28.1 20.28 (21:30) 12.5 (22:20) 0.4 0.4 0 0 0
08-08-2020 38.8 (16:50) 20.2 (07:10) 29.5 18.33 (20:10) 10.56 (20:10) 0 0 0 0 0
07-08-2020 38.9 (17:40) 22.5 (00:00) 30.7 16.67 (21:00) 9.72 (21:30) 0 0 0 0 0
06-08-2020 36.4 (17:40) 19.4 (07:00) 27.9 8.89 (20:30) 6.39 (20:30) 0 0 0 0 0
05-08-2020 33.2 (18:10) 10.9 (00:00) 22.1 8.89 (16:10) 5.56 (15:10) 0 0 0 0 0
04-08-2020 27.4 (15:50) 14 (04:40) 20.7 13.89 (17:00) 8.61 (17:40) 0 0 0 0 0
03-08-2020 24.9 (15:20) 14.8 (07:50) 19.8 17.78 (15:10) 11.11 (13:20) 0 0 0 0 0
02-08-2020 26.2 (16:10) 16.2 (07:40) 21.2 15.83 (22:50) 9.72 (22:50) 0 0 0 0 0
01-08-2020 30.5 (00:00) 19.1 (00:00) 24.8 15 (19:10) 9.44 (19:00) 0 0 0 0 0
31-07-2020 38 (16:30) 23.3 (07:40) 30.6 16.39 (00:10) 10 (00:10) 0 0 0 0 0
30-07-2020 37 (17:30) 22.9 (00:00) 29.9 19.17 (21:50) 14.17 (21:50) 0 0 0 0 0
29-07-2020 34.3 (17:30) 17.8 (00:00) 26 11.39 (18:20) 7.22 (20:30) 0 0 0 0 0
28-07-2020 34.3 (17:00) 19.7 (07:30) 27 8.61 (21:00) 6.11 (21:00) 0 0 0 0 0
27-07-2020 37.6 (16:50) 21 (00:00) 29.3 11.94 (09:30) 9.17 (09:40) 0 0 0 0 0
26-07-2020 34.9 (18:00) 16.9 (00:00) 25.9 8.33 (13:30) 5.28 (20:20) 0 0 0 0 0
25-07-2020 34.4 (18:40) 13.1 (07:10) 23.8 10.28 (01:00) 7.5 (01:00) 0 0 0 0 0
24-07-2020 29.5 (17:20) 15.1 (00:00) 22.3 11.94 (20:20) 7.78 (20:20) 1.2 1 0.2 0 0
23-07-2020 33 (18:00) 16.6 (00:00) 24.8 9.72 (19:20) 6.39 (19:20) 0 0 0 0 0
22-07-2020 34.4 (16:00) 18.3 (06:20) 26.4 10.28 (12:50) 6.94 (01:10) 0 0 0 0 0
21-07-2020 34.5 (16:40) 19.7 (00:00) 27.1 15.56 (22:20) 9.44 (18:30) 1.6 0 0 0 1.6
20-07-2020 34.2 (16:40) 18.4 (07:20) 26.3 15.28 (22:50) 11.11 (22:40) 0 0 0 0 0
19-07-2020 35 (18:00) 18.6 (00:00) 26.8 10 (20:40) 6.94 (20:30) 0 0 0 0 0
18-07-2020 31.7 (18:10) 13.9 (00:00) 22.8 -- (--) -- (--) 0 0 0 0 0
17-07-2020 25.5 (17:10) 12.6 (00:00) 19.1 14.72 (17:30) 9.72 (17:40) 0 0 0 0 0
16-07-2020 26.6 (16:30) 12.9 (00:00) 19.8 12.22 (17:40) 8.61 (18:50) 0 0 0 0 0
15-07-2020 23.8 (14:20) 11.6 (07:20) 17.7 15.83 (15:40) 9.17 (16:20) 0 0 0 0 0
14-07-2020 26.7 (18:00) 12.8 (00:00) 19.8 10.83 (15:50) 7.5 (18:50) 0 0 0 0 0

Gráficas

Temp. máximas Temp. mínimas Temp. medias Precipitaciones Rachas de viento máximas Velocidades máximas media en intervalos de 10 minutos

Datos horarios

Fecha y hora oficial Temperatura (ºC) Velocidad del viento (km/h) Dirección del viento Racha (km/h) Dirección de racha Precipitación (mm) Presión (hPa) Tendencia (hPa) Humedad (%)
2020-08-12 23:00:00 22.5 3 Sudeste 13 Oeste 0 -- -- 51
2020-08-12 22:00:00 23.2 5 Este 18 Oeste 0 -- -- 50
2020-08-12 21:00:00 26.2 5 Sudeste 21 Noroeste 0 -- -- 41
2020-08-12 20:00:00 28.8 14 Noroeste 25 Oeste 0 -- -- 37
2020-08-12 19:00:00 28 13 Oeste 33 Oeste 0 -- -- 35
2020-08-12 18:00:00 30.2 21 Oeste 32 Oeste -- -- -- 30
2020-08-12 17:00:00 30.6 8 Oeste 31 Oeste 0 -- -- 29
2020-08-12 16:00:00 30 13 Sudoeste 31 Oeste 0 -- -- 32
2020-08-12 15:00:00 28.6 6 Sur 21 Sudeste 0 -- -- 38
2020-08-12 14:00:00 27.1 8 Sur 22 Sudeste 0 -- -- 42
2020-08-12 13:00:00 24.9 9 Sur 19 Sur 0 -- -- 47
2020-08-12 12:00:00 23.5 9 Sudeste 19 Sudeste 0 -- -- 56
2020-08-12 11:00:00 22.9 13 Sudeste 23 Sudeste 0 -- -- 59
2020-08-12 10:00:00 21.6 10 Sudeste 19 Sudeste 0 -- -- 66
2020-08-12 09:00:00 19.8 15 Sudeste 26 Sudeste 0 -- -- 73
2020-08-12 08:00:00 17.2 10 Este 16 Este 0 -- -- 83
2020-08-12 07:00:00 16.9 8 Este 23 Este 0 -- -- 87
2020-08-12 06:00:00 17.6 14 Este 27 Este 0 -- -- 89
2020-08-12 05:00:00 17.8 17 Este 24 Este 0.2 -- -- 87
2020-08-12 04:00:00 17.5 18 Nordeste 28 Nordeste 0.8 -- -- 89
2020-08-12 03:00:00 18.5 6 Noroeste 17 Oeste 0.8 -- -- 79
2020-08-12 02:00:00 19.4 9 Oeste 14 Oeste 0.4 -- -- 79
2020-08-12 01:00:00 21.8 6 Noroeste 22 Oeste 0 -- -- 68
2020-08-12 00:00:00 24.4 8 Sudoeste 26 Sudeste 0 -- -- 55
2020-08-11 23:00:00 25.1 12 Sudeste 26 Sudeste 0 -- -- 50
2020-08-11 22:00:00 26 13 Sudeste 23 Este 0 -- -- 44
2020-08-11 21:00:00 26.4 15 Este 31 Este 0 -- -- 44
2020-08-11 20:00:00 27.1 24 Este 34 Este 0 -- -- 40
2020-08-11 19:00:00 27 22 Este 40 Este 0 -- -- 39
2020-08-11 18:00:00 27.5 31 Este 49 Este 0 -- -- 35
2020-08-11 17:00:00 27.7 29 Este 46 Este 0 -- -- 36
2020-08-11 16:00:00 28.2 33 Este 52 Este 0 -- -- 42
2020-08-11 15:00:00 29.1 34 Este 50 Este 0 -- -- 40
2020-08-11 14:00:00 29.1 28 Este 46 Este 0 -- -- 42
2020-08-11 13:00:00 28.7 27 Este 44 Sudeste 0 -- -- 41
2020-08-11 12:00:00 27.8 28 Sudeste 53 Este 0 -- -- 39
2020-08-11 11:00:00 26.7 33 Este 57 Este 0 -- -- 44
2020-08-11 10:00:00 24.6 29 Este 52 Este 0 -- -- 54
2020-08-11 09:00:00 22.5 28 Este 46 Este 0 -- -- 59
2020-08-11 08:00:00 22.1 20 Nordeste 31 Nordeste 0.2 -- -- 61
2020-08-11 07:00:00 21.7 14 Este 30 Este 0 -- -- 69
2020-08-11 06:00:00 23.1 19 Este 40 Este 0 -- -- 61
2020-08-11 05:00:00 23.3 27 Este 36 Este 0 -- -- 59
2020-08-11 04:00:00 23.7 23 Este 30 Este 0 -- -- 65
2020-08-11 03:00:00 24.4 19 Este 35 Este 0 -- -- 60
2020-08-11 02:00:00 25.3 27 Este 39 Este 0 -- -- 56
2020-08-11 01:00:00 25.6 22 Este 29 Este 0 -- -- 48
2020-08-11 00:00:00 25.5 18 Este 31 Este 0 -- -- 46
2020-08-10 23:00:00 26 19 Este 30 Este 0 -- -- 44
2020-08-10 22:00:00 26.7 17 Este 33 Este 0 -- -- 46
2020-08-10 21:00:00 27.9 16 Este 39 Este 0 -- -- 41
2020-08-10 20:00:00 29.6 20 Este 43 Este 0 -- -- 38
2020-08-10 19:00:00 30.1 28 Este 43 Este 0 -- -- 37
2020-08-10 18:00:00 30.2 27 Este 45 Este 0 -- -- 37
2020-08-10 17:00:00 30.9 26 Este 42 Este 0 -- -- 41
2020-08-10 16:00:00 29.9 2 Norte 31 Sudeste 0 -- -- 40
2020-08-10 15:00:00 29.5 17 Sudeste 36 Este 0 -- -- 44
2020-08-10 14:00:00 33.7 15 Sudeste 37 Este 0 -- -- 31
2020-08-10 13:00:00 32.4 15 Este 30 Sudeste 0 -- -- 34
2020-08-10 12:00:00 30.6 15 Este 33 Este 0 -- -- 37
2020-08-10 11:00:00 28.5 26 Este 41 Este 0 -- -- 39
2020-08-10 10:00:00 26.1 28 Este 36 Este 0 -- -- 44
2020-08-10 09:00:00 24.5 20 Este 31 Este 0 -- -- 46
2020-08-10 08:00:00 24.1 19 Este 34 Este 0 -- -- 47
2020-08-10 07:00:00 24.1 23 Este 31 Este 0 -- -- 47
2020-08-10 06:00:00 24.4 21 Este 31 Este 0 -- -- 46
2020-08-10 05:00:00 24.6 23 Este 32 Este 0 -- -- 45
2020-08-10 04:00:00 24.9 24 Este 30 Este 0 -- -- 45
2020-08-10 03:00:00 26 23 Este 36 Este 0 -- -- 43
2020-08-10 02:00:00 27 28 Este 42 Nordeste 0 -- -- 40
2020-08-10 01:00:00 25.6 30 Nordeste 41 Nordeste 0 -- -- 45
2020-08-10 00:00:00 26.8 28 Este 62 Este 0 -- -- 42
2020-08-09 23:00:00 26.7 44 Este 62 Este 0 -- -- 42
2020-08-09 22:00:00 27.7 36 Este 73 Este 0 -- -- 40
2020-08-09 21:00:00 30.8 29 Este 41 Este 0 -- -- 31
2020-08-09 20:00:00 32 25 Este 51 Sudeste 0 -- -- 31
2020-08-09 19:00:00 34.1 39 Este 56 Este 0 -- -- 34
2020-08-09 18:00:00 34.9 33 Este 45 Este 0 -- -- 33
2020-08-09 17:00:00 35.8 27 Este 47 Este 0 -- -- 32
2020-08-09 16:00:00 36.2 23 Este 41 Este 0 -- -- 31
2020-08-09 15:00:00 36.2 22 Este 34 Sudeste 0 -- -- 31
2020-08-09 14:00:00 35.3 17 Este 41 Este 0 -- -- 29
2020-08-09 13:00:00 34.3 21 Este 38 Este 0 -- -- 33
2020-08-09 12:00:00 32.6 23 Este 34 Este 0 -- -- 35
2020-08-09 11:00:00 31.8 16 Este 23 Sudeste 0 -- -- 38
2020-08-09 10:00:00 29.6 11 Sudeste 20 Este 0 -- -- 41
2020-08-09 09:00:00 25.6 7 Nordeste 18 Nordeste 0 -- -- 51
2020-08-09 08:00:00 20.9 14 Nordeste 17 Nordeste 0 -- -- 67
2020-08-09 07:00:00 20.2 10 Nordeste 14 Nordeste 0 -- -- 70
2020-08-09 06:00:00 21.9 5 Nordeste 7 Este 0 -- -- 64
2020-08-09 05:00:00 22.7 4 Sudeste 9 Noroeste 0 -- -- 64
2020-08-09 04:00:00 23 7 Oeste 24 Oeste 0 -- -- 63
2020-08-09 03:00:00 23.7 11 Nordeste 17 Nordeste 0 -- -- 58
2020-08-09 02:00:00 23.8 9 Oeste 22 Oeste 0.4 -- -- 63
2020-08-09 01:00:00 27.2 16 Oeste 22 Nordeste 0 -- -- 42
2020-08-09 00:00:00 28.1 7 Sur 25 Oeste 0 -- -- 40
2020-08-08 23:00:00 28 11 Oeste 36 Oeste 0 -- -- 41
2020-08-08 22:00:00 30.7 5 Noroeste 39 Sudoeste 0 -- -- 31
2020-08-08 21:00:00 30.4 30 Sudoeste 66 Oeste 0 -- -- 38
2020-08-08 20:00:00 34.3 14 Oeste 19 Oeste 0 -- -- 31
2020-08-08 19:00:00 37.2 16 Este 24 Sudeste -- -- -- 26
2020-08-08 18:00:00 38.2 4 Sudeste 22 Sudoeste 0 -- -- 25
2020-08-08 17:00:00 38.6 8 Oeste 17 Oeste 0 -- -- 25
2020-08-08 16:00:00 37.5 9 Oeste 22 Este 0 -- -- 27
2020-08-08 15:00:00 36.9 10 Este 23 Este 0 -- -- 27
2020-08-08 14:00:00 36.3 12 Este 24 Sudeste 0 -- -- 27
2020-08-08 13:00:00 32.6 8 Oeste 21 Oeste 0 -- -- 38
2020-08-08 12:00:00 29.8 14 Oeste 20 Oeste 0 -- -- 45
2020-08-08 11:00:00 27.2 15 Oeste 24 Oeste 0 -- -- 50
2020-08-08 10:00:00 25.2 11 Oeste 19 Oeste 0 -- -- 54
2020-08-08 09:00:00 25.3 6 Este 14 Nordeste 0 -- -- 50
2020-08-08 08:00:00 21 12 Nordeste 17 Nordeste 0 -- -- 62
2020-08-08 07:00:00 20.4 14 Nordeste 16 Nordeste 0 -- -- 64
2020-08-08 06:00:00 20.5 12 Nordeste 13 Nordeste 0 -- -- 64
2020-08-08 05:00:00 21.1 8 Este 12 Este 0 -- -- 63
2020-08-08 04:00:00 22.5 4 Sudeste 23 Oeste 0 -- -- 60
2020-08-08 03:00:00 25.5 11 Noroeste 25 Noroeste 0 -- -- 49
2020-08-08 02:00:00 26.9 5 Nordeste 25 Nordeste 0 -- -- 40
2020-08-08 01:00:00 25.4 5 Sur 28 Noroeste 0 -- -- 48
2020-08-08 00:00:00 24.7 17 Noroeste 60 Oeste 0 -- -- 55
2020-08-07 23:00:00 27.5 11 Oeste 43 Nordeste 0 -- -- 45
2020-08-07 22:00:00 26.2 14 Nordeste 58 Noroeste 0 -- -- 49
2020-08-07 21:00:00 33.5 23 Nordeste 60 Noroeste 0 -- -- 30
2020-08-07 20:00:00 34.8 16 Sur 32 Sudeste 0 -- -- 29
2020-08-07 19:00:00 36.9 17 Este 29 Sudeste 0 -- -- 24
2020-08-07 18:00:00 38.2 13 Sudeste 30 Este 0 -- -- 23
2020-08-07 17:00:00 38.5 11 Sudeste 24 Este 0 -- -- 22
2020-08-07 16:00:00 38.2 5 Sudeste 23 Sudeste 0 -- -- 23
2020-08-07 15:00:00 37.4 11 Este 27 Este 0 -- -- 24
2020-08-07 14:00:00 36 6 Sudeste 22 Este 0 -- -- 25
2020-08-07 13:00:00 34.1 16 Este 29 Este 0 -- -- 29
2020-08-07 12:00:00 32.2 20 Este 30 Este 0 -- -- 30
2020-08-07 11:00:00 30.4 17 Este 26 Este 0 -- -- 34
2020-08-07 10:00:00 28.5 13 Este 30 Este 0 -- -- 37
2020-08-07 09:00:00 25.7 19 Este 33 Este 0 -- -- 46
2020-08-07 08:00:00 22.8 19 Este 30 Este 0 -- -- 56
2020-08-07 07:00:00 23.1 23 Este 38 Este 0 -- -- 56
2020-08-07 06:00:00 23.1 21 Este 34 Este 0 -- -- 57
2020-08-07 05:00:00 22.9 26 Este 39 Este 0 -- -- 59
2020-08-07 04:00:00 23.3 21 Este 41 Este 0 -- -- 61
2020-08-07 03:00:00 24 27 Este 42 Este 0 -- -- 60
2020-08-07 02:00:00 25.6 25 Este 32 Este 0 -- -- 54
2020-08-07 01:00:00 27.8 21 Este 32 Este 0 -- -- 47
2020-08-07 00:00:00 27.8 22 Este 32 Este 0 -- -- 49
2020-08-06 23:00:00 28.5 18 Este 24 Este 0 -- -- 41
2020-08-06 22:00:00 29.9 19 Este 25 Este 0 -- -- 37
2020-08-06 21:00:00 32.3 17 Este 32 Este 0 -- -- 33
2020-08-06 20:00:00 34.3 19 Este 30 Este 0 -- -- 32
2020-08-06 19:00:00 35.6 14 Este 26 Sudeste 0 -- -- 28
2020-08-06 18:00:00 35.9 13 Este 28 Sudeste 0 -- -- 28
2020-08-06 17:00:00 36.1 13 Sudeste 28 Este 0 -- -- 28
2020-08-06 16:00:00 35.2 9 Sudeste 24 Sudeste 0 -- -- 30
2020-08-06 15:00:00 33.7 15 Sudeste 28 Sudeste 0 -- -- 32
2020-08-06 14:00:00 32.8 13 Sudeste 25 Sudeste 0 -- -- 33
2020-08-06 13:00:00 30.6 9 Sudeste 24 Este 0 -- -- 42
2020-08-06 12:00:00 29 13 Sudeste 24 Sudeste 0 -- -- 49
2020-08-06 11:00:00 26.5 17 Este 28 Este 0 -- -- 60
2020-08-06 10:00:00 24.6 14 Este 23 Sudeste 0 -- -- 67
2020-08-06 09:00:00 22.3 10 Este 23 Nordeste 0 -- -- 77
2020-08-06 08:00:00 19.9 13 Este 19 Nordeste 0 -- -- 86
2020-08-06 07:00:00 19.4 14 Este 22 Este 0 -- -- 86
2020-08-06 06:00:00 20 13 Este 27 Este 0 -- -- 83
2020-08-06 05:00:00 20.4 18 Este 25 Este 0 -- -- 81
2020-08-06 04:00:00 21.1 15 Este 24 Este 0 -- -- 73
2020-08-06 03:00:00 21.6 15 Este 20 Este 0 -- -- 51
2020-08-06 02:00:00 22.9 12 Este 17 Este 0 -- -- 44
2020-08-06 01:00:00 23 15 Este 20 Este 0 -- -- 37
2020-08-06 00:00:00 22.5 13 Nordeste 16 Este 0 -- -- 30
2020-08-05 23:00:00 24.3 8 Nordeste 15 Nordeste 0 -- -- 25
2020-08-05 22:00:00 25.5 9 Este 13 Nordeste 0 -- -- 23
2020-08-05 21:00:00 30.8 2 Oeste 13 Oeste 0 -- -- 16
2020-08-05 20:00:00 32.5 7 Oeste 16 Oeste 0 -- -- 14
2020-08-05 19:00:00 33.2 6 Oeste 18 Oeste 0 -- -- 13
2020-08-05 18:00:00 33 4 Nordeste 22 Sudoeste 0 -- -- 12
2020-08-05 17:00:00 32.1 12 Oeste 32 Oeste 0 -- -- 14
2020-08-05 16:00:00 31.1 14 Oeste 32 Oeste 0 -- -- 12
2020-08-05 15:00:00 29.7 17 Oeste 25 Oeste 0 -- -- 19
2020-08-05 14:00:00 27.7 9 Oeste 22 Oeste 0 -- -- 29
2020-08-05 13:00:00 25.4 10 Oeste 18 Sudoeste 0 -- -- 37
2020-08-05 12:00:00 23.1 11 Oeste 16 Sudoeste 0 -- -- 42
2020-08-05 11:00:00 20 4 Oeste 14 Sudoeste 0 -- -- 59
2020-08-05 10:00:00 17 9 Sudoeste 15 Sudoeste 0 -- -- 70
2020-08-05 09:00:00 14.9 3 Noroeste 8 Nordeste 0 -- -- 79
2020-08-05 08:00:00 11.9 8 Este 12 Este 0 -- -- 90
2020-08-05 07:00:00 12.2 5 Nordeste 11 Nordeste 0 -- -- 84
2020-08-05 06:00:00 13.1 2 Oeste 11 Noroeste 0 -- -- 83
2020-08-05 05:00:00 14 6 Noroeste 13 Noroeste 0 -- -- 83
2020-08-05 04:00:00 14 10 Oeste 15 Oeste 0 -- -- 82
2020-08-05 03:00:00 14.9 9 Oeste 26 Noroeste 0 -- -- 79
2020-08-05 02:00:00 16.1 17 Oeste 27 Oeste 0 -- -- 75
2020-08-05 01:00:00 16.3 13 Oeste 30 Noroeste 0 -- -- 73
2020-08-05 00:00:00 17.7 15 Oeste 34 Oeste 0 -- -- 69
2020-08-04 23:00:00 19 14 Oeste 27 Oeste 0 -- -- 61
2020-08-04 22:00:00 20.6 20 Oeste 33 Noroeste 0 -- -- 56
2020-08-04 21:00:00 23.6 13 Noroeste 34 Oeste 0 -- -- 41
2020-08-04 20:00:00 25.3 24 Oeste 43 Oeste 0 -- -- 39
2020-08-04 19:00:00 26.8 21 Oeste 45 Oeste 0 -- -- 33
2020-08-04 18:00:00 27.2 26 Oeste 46 Oeste 0 -- -- 30
2020-08-04 17:00:00 27.1 25 Oeste 50 Oeste 0 -- -- 32
2020-08-04 16:00:00 27.1 25 Oeste 42 Oeste 0 -- -- 33
2020-08-04 15:00:00 26.3 25 Oeste 48 Oeste 0 -- -- 35
2020-08-04 14:00:00 25.1 28 Oeste 45 Oeste 0 -- -- 39
2020-08-04 13:00:00 23.5 23 Noroeste 43 Oeste 0 -- -- 45
2020-08-04 12:00:00 21.7 21 Oeste 36 Oeste 0 -- -- 53
2020-08-04 11:00:00 19.6 19 Oeste 39 Oeste 0 -- -- 60
2020-08-04 10:00:00 17.8 24 Oeste 42 Oeste 0 -- -- 68
2020-08-04 09:00:00 16 20 Oeste 37 Oeste 0 -- -- 76
2020-08-04 08:00:00 14.3 21 Oeste 33 Oeste 0 -- -- 83
2020-08-04 07:00:00 14 19 Oeste 35 Oeste 0 -- -- 84
2020-08-04 06:00:00 14.2 18 Oeste 33 Oeste 0 -- -- 83
2020-08-04 05:00:00 14.5 19 Oeste 40 Oeste 0 -- -- 80
2020-08-04 04:00:00 14.7 27 Oeste 46 Oeste 0 -- -- 79
2020-08-04 03:00:00 14.5 24 Oeste 47 Oeste 0 -- -- 78
2020-08-04 02:00:00 14.9 29 Oeste 50 Sudoeste 0 -- -- 75
2020-08-04 01:00:00 16.1 17 Noroeste 39 Oeste 0 -- -- 69
2020-08-04 00:00:00 16.9 24 Noroeste 47 Noroeste 0 -- -- 66
2020-08-03 23:00:00 17.8 31 Noroeste 52 Noroeste 0 -- -- 63
2020-08-03 22:00:00 18.5 21 Noroeste 43 Oeste 0 -- -- 60
2020-08-03 21:00:00 19.9 28 Noroeste 49 Oeste 0 -- -- 55
2020-08-03 20:00:00 22.6 21 Oeste 46 Oeste 0 -- -- 47
2020-08-03 19:00:00 23.9 25 Noroeste 51 Noroeste 0 -- -- 44
2020-08-03 18:00:00 24.5 30 Noroeste 54 Oeste 0 -- -- 42
2020-08-03 17:00:00 24.5 32 Noroeste 57 Noroeste 0 -- -- 42
2020-08-03 16:00:00 24.8 30 Noroeste 64 Oeste 0 -- -- 43
2020-08-03 15:00:00 24.3 38 Oeste 58 Oeste 0 -- -- 41
2020-08-03 14:00:00 23.8 28 Noroeste 58 Noroeste 0 -- -- 40
2020-08-03 13:00:00 22.4 27 Noroeste 60 Noroeste 0 -- -- 42
2020-08-03 12:00:00 21.1 34 Oeste 59 Oeste 0 -- -- 46
2020-08-03 11:00:00 19.2 35 Oeste 59 Oeste 0 -- -- 55
2020-08-03 10:00:00 17.7 25 Oeste 46 Oeste 0 -- -- 62
2020-08-03 09:00:00 16.1 30 Oeste 53 Oeste 0 -- -- 71
2020-08-03 08:00:00 14.8 23 Oeste 50 Oeste 0 -- -- 76
2020-08-03 07:00:00 15.4 22 Oeste 38 Oeste 0 -- -- 72
2020-08-03 06:00:00 15.4 24 Oeste 46 Oeste 0 -- -- 74
2020-08-03 05:00:00 15.8 22 Oeste 48 Oeste 0 -- -- 71
2020-08-03 04:00:00 16 24 Oeste 48 Oeste 0 -- -- 70
2020-08-03 03:00:00 16.2 24 Oeste 45 Oeste 0 -- -- 72
2020-08-03 02:00:00 16.4 23 Oeste 43 Oeste 0 -- -- 70
2020-08-03 01:00:00 16.8 27 Oeste 45 Noroeste 0 -- -- 67
2020-08-03 00:00:00 17.1 28 Noroeste 52 Noroeste 0 -- -- 65
2020-08-02 23:00:00 17.5 32 Oeste 57 Oeste 0 -- -- 67
2020-08-02 22:00:00 18.7 24 Oeste 46 Oeste 0 -- -- 60
2020-08-02 21:00:00 20.1 21 Noroeste 46 Noroeste 0 -- -- 55
2020-08-02 20:00:00 20.5 25 Noroeste 44 Noroeste 0 -- -- 54
2020-08-02 19:00:00 21.9 23 Noroeste 45 Oeste 0 -- -- 51
2020-08-02 18:00:00 23.4 25 Oeste 56 Noroeste 0 -- -- 49
2020-08-02 17:00:00 24.6 24 Oeste 49 Oeste 0 -- -- 47
2020-08-02 16:00:00 25.9 27 Noroeste 55 Oeste 0 -- -- 46
2020-08-02 15:00:00 25.4 25 Oeste 47 Oeste 0 -- -- 48
2020-08-02 14:00:00 24.8 29 Oeste 52 Oeste 0 -- -- 50
2020-08-02 13:00:00 24.1 33 Oeste 53 Oeste 0 -- -- 54
2020-08-02 12:00:00 23 30 Oeste 45 Oeste 0 -- -- 58
2020-08-02 11:00:00 21.4 22 Oeste 45 Oeste 0 -- -- 64
2020-08-02 10:00:00 19.5 23 Oeste 36 Oeste 0 -- -- 71
2020-08-02 09:00:00 17.9 26 Oeste 35 Oeste 0 -- -- 78
2020-08-02 08:00:00 16.4 22 Oeste 36 Oeste 0 -- -- 83
2020-08-02 07:00:00 16.6 21 Oeste 34 Oeste 0 -- -- 82
2020-08-02 06:00:00 17 16 Oeste 31 Oeste 0 -- -- 82
2020-08-02 05:00:00 17.3 22 Oeste 36 Oeste 0 -- -- 82
2020-08-02 04:00:00 17.6 24 Oeste 37 Oeste 0 -- -- 83
2020-08-02 03:00:00 18 25 Oeste 41 Oeste 0 -- -- 82
2020-08-02 02:00:00 18.3 25 Oeste 42 Oeste 0 -- -- 82
2020-08-02 01:00:00 18.6 24 Oeste 37 Oeste 0 -- -- 81
2020-08-02 00:00:00 19.1 27 Oeste 42 Oeste 0 -- -- 78
2020-08-01 23:00:00 19.7 27 Oeste 50 Oeste 0 -- -- 74
2020-08-01 22:00:00 21.2 30 Oeste 43 Oeste 0 -- -- 66
2020-08-01 21:00:00 23.4 18 Oeste 45 Oeste 0 -- -- 58
2020-08-01 20:00:00 25.4 28 Oeste 54 Oeste 0 -- -- 53
2020-08-01 19:00:00 27.2 34 Oeste 51 Oeste 0 -- -- 49
2020-08-01 18:00:00 28.8 28 Oeste 44 Oeste 0 -- -- 47
2020-08-01 17:00:00 29.5 31 Oeste 44 Oeste 0 -- -- 46
2020-08-01 16:00:00 30.3 24 Oeste 42 Oeste 0 -- -- 44
2020-08-01 15:00:00 29.8 22 Oeste 38 Oeste 0 -- -- 46
2020-08-01 14:00:00 28.8 21 Oeste 33 Oeste 0 -- -- 49
2020-08-01 13:00:00 27.3 17 Oeste 33 Oeste 0 -- -- 53
2020-08-01 12:00:00 25.9 18 Oeste 30 Oeste 0 -- -- 58
2020-08-01 11:00:00 24 18 Oeste 35 Oeste 0 -- -- 64
2020-08-01 10:00:00 22.3 16 Oeste 24 Oeste 0 -- -- 73
2020-08-01 09:00:00 20.7 12 Oeste 23 Oeste 0 -- -- 79
2020-08-01 08:00:00 19.9 8 Oeste 26 Oeste 0 -- -- 82
2020-08-01 07:00:00 20 10 Oeste 17 Oeste 0 -- -- 80
2020-08-01 06:00:00 20.6 2 Nordeste 8 Noroeste 0 -- -- 75
2020-08-01 05:00:00 22.1 0 Calma 17 Oeste 0 -- -- 68
2020-08-01 04:00:00 23.4 14 Oeste 18 Oeste 0 -- -- 62
2020-08-01 03:00:00 27 0 Calma 13 Este 0 -- -- 44
2020-08-01 02:00:00 28.3 9 Este 17 Este 0 -- -- 42
2020-08-01 01:00:00 29.7 13 Este 18 Este 0 -- -- 40
2020-08-01 00:00:00 30.5 12 Este 18 Este 0 -- -- 34
2020-07-31 23:00:00 29.9 9 Este 13 Nordeste 0 -- -- 32
2020-07-31 22:00:00 31.7 7 Este 12 Este 0 -- -- 29
2020-07-31 21:00:00 35.3 3 Noroeste 11 Nordeste 0 -- -- 25
2020-07-31 20:00:00 36.9 3 Sudoeste 16 Este 0 -- -- 23
2020-07-31 19:00:00 36.9 10 Nordeste 21 Nordeste 0 -- -- 23
2020-07-31 18:00:00 37.9 5 Oeste 25 Oeste 0 -- -- 23
2020-07-31 17:00:00 37.8 11 Oeste 28 Oeste 0 -- -- 20
2020-07-31 16:00:00 37.2 6 Oeste 29 Oeste 0 -- -- 22
2020-07-31 15:00:00 36.4 13 Noroeste 26 Oeste 0 -- -- 23
2020-07-31 14:00:00 35.4 5 Noroeste 16 Nordeste 0 -- -- 26
2020-07-31 13:00:00 34.5 11 Sudoeste 20 Sudoeste 0 -- -- 27
2020-07-31 12:00:00 33.7 9 Sur 26 Sudeste 0 -- -- 28
2020-07-31 11:00:00 31.9 15 Sudeste 31 Este 0 -- -- 32
2020-07-31 10:00:00 29 23 Este 35 Este 0 -- -- 38
2020-07-31 09:00:00 26.2 27 Este 33 Este 0 -- -- 42
2020-07-31 08:00:00 23.7 15 Este 25 Este 0 -- -- 48
2020-07-31 07:00:00 23.9 16 Este 33 Este 0 -- -- 48
2020-07-31 06:00:00 24.1 18 Este 29 Este 0 -- -- 49
2020-07-31 05:00:00 24.6 15 Nordeste 23 Este 0 -- -- 50
2020-07-31 04:00:00 25.1 5 Este 32 Este 0 -- -- 48
2020-07-31 03:00:00 26 22 Este 28 Este 0 -- -- 45
2020-07-31 02:00:00 26.5 7 Este 32 Este 0 -- -- 43
2020-07-31 01:00:00 26.5 7 Este 59 Sudeste 0 -- -- 44
2020-07-31 00:00:00 28.5 34 Este 59 Sudeste 0 -- -- 35
2020-07-30 23:00:00 26.3 15 Este 45 Oeste 0 -- -- 47
2020-07-30 22:00:00 25.7 43 Oeste 69 Oeste 0 -- -- 53
2020-07-30 21:00:00 27.9 8 Noroeste 51 Noroeste 0 -- -- 40
2020-07-30 20:00:00 28.5 35 Noroeste 55 Oeste 0 -- -- 43
2020-07-30 19:00:00 34.4 26 Sudeste 57 Sudeste 0 -- -- 22
2020-07-30 18:00:00 35.7 31 Sudeste 58 Este 0 -- -- 25
2020-07-30 17:00:00 36.1 31 Este 53 Este 0 -- -- 27
2020-07-30 16:00:00 35.9 34 Este 52 Este 0 -- -- 27
2020-07-30 15:00:00 35.6 31 Este 55 Este 0 -- -- 28
2020-07-30 14:00:00 35.3 30 Este 45 Este 0 -- -- 27
2020-07-30 13:00:00 33.4 28 Este 43 Este 0 -- -- 30
2020-07-30 12:00:00 32.1 19 Sudeste 35 Sudeste 0 -- -- 32
2020-07-30 11:00:00 30 22 Este 42 Sudeste 0 -- -- 37
2020-07-30 10:00:00 28.1 26 Este 36 Este 0 -- -- 39
2020-07-30 09:00:00 25.9 13 Este 19 Este 0 -- -- 46
2020-07-30 08:00:00 23.6 17 Este 31 Este 0 -- -- 53
2020-07-30 07:00:00 23.4 26 Este 34 Este 0 -- -- 53
2020-07-30 06:00:00 23 26 Este 39 Este 0 -- -- 55
2020-07-30 05:00:00 23.5 27 Este 40 Este 0 -- -- 54
2020-07-30 04:00:00 23.7 19 Este 44 Este 0 -- -- 53
2020-07-30 03:00:00 24.1 28 Este 40 Este 0 -- -- 55
2020-07-30 02:00:00 24.9 21 Este 31 Este 0 -- -- 52
2020-07-30 01:00:00 26.2 18 Este 33 Este 0 -- -- 48
2020-07-30 00:00:00 28.4 16 Este 37 Este 0 -- -- 42
2020-07-29 23:00:00 28.2 19 Este 27 Este 0 -- -- 43
2020-07-29 22:00:00 29.6 7 Este 33 Este 0 -- -- 41
2020-07-29 21:00:00 30.8 25 Este 35 Este 0 -- -- 40
2020-07-29 20:00:00 31.7 19 Este 36 Este 0 -- -- 38
2020-07-29 19:00:00 33.4 23 Este 41 Este 0 -- -- 35
2020-07-29 18:00:00 34.2 18 Este 38 Este 0 -- -- 33
2020-07-29 17:00:00 34 13 Sudeste 31 Sudeste 0 -- -- 33
2020-07-29 16:00:00 33 18 Este 32 Este 0 -- -- 37
2020-07-29 15:00:00 32.3 18 Este 32 Este 0 -- -- 37
2020-07-29 14:00:00 30.8 11 Sudeste 28 Sudeste 0 -- -- 37
2020-07-29 13:00:00 29.3 14 Sudeste 26 Sudeste 0 -- -- 44
2020-07-29 12:00:00 26.3 9 Oeste 17 Oeste 0 -- -- 57
2020-07-29 11:00:00 23 5 Sudoeste 12 Oeste 0 -- -- 67
2020-07-29 10:00:00 19.8 4 Oeste 9 Sur 0 -- -- 78
2020-07-29 09:00:00 18.1 7 Sudoeste 16 Oeste 0 -- -- 84
2020-07-29 08:00:00 18.5 5 Sudoeste 12 Sudoeste 0 -- -- 82
2020-07-29 07:00:00 18.2 3 Norte 7 Oeste 0 -- -- 82
2020-07-29 06:00:00 17.9 7 Oeste 12 Oeste 0 -- -- 84
2020-07-29 05:00:00 18.1 5 Oeste 19 Oeste 0 -- -- 83
2020-07-29 04:00:00 18.8 8 Oeste 20 Noroeste 0 -- -- 82
2020-07-29 03:00:00 19.4 13 Noroeste 22 Noroeste 0 -- -- 79
2020-07-29 02:00:00 20.2 9 Noroeste 22 Oeste 0 -- -- 78
2020-07-29 01:00:00 20.7 9 Oeste 21 Oeste 0 -- -- 77
2020-07-29 00:00:00 21.6 13 Oeste 18 Sudoeste 0 -- -- 74
2020-07-28 23:00:00 23 11 Oeste 23 Sudoeste 0 -- -- 68
2020-07-28 22:00:00 24.5 15 Oeste 29 Noroeste 0 -- -- 64
2020-07-28 21:00:00 27.4 22 Noroeste 31 Noroeste 0 -- -- 54
2020-07-28 20:00:00 30.5 17 Noroeste 27 Noroeste 0 -- -- 47
2020-07-28 19:00:00 32.1 13 Oeste 23 Oeste 0 -- -- 39
2020-07-28 18:00:00 32.6 20 Oeste 28 Oeste 0 -- -- 39
2020-07-28 17:00:00 34.3 17 Oeste 28 Oeste 0 -- -- 37
2020-07-28 16:00:00 32.9 13 Oeste 24 Oeste 0 -- -- 41
2020-07-28 15:00:00 31.8 15 Oeste 30 Oeste 0 -- -- 43
2020-07-28 14:00:00 30.3 18 Oeste 26 Oeste 0 -- -- 47
2020-07-28 13:00:00 27.9 15 Oeste 23 Oeste 0 -- -- 53
2020-07-28 12:00:00 25.8 14 Oeste 21 Oeste 0 -- -- 58
2020-07-28 11:00:00 23.7 11 Oeste 27 Sudoeste 0 -- -- 64
2020-07-28 10:00:00 22.2 11 Sudoeste 16 Sudoeste 0 -- -- 69
2020-07-28 09:00:00 20.7 3 Oeste 13 Oeste 0 -- -- 74
2020-07-28 08:00:00 20.2 4 Oeste 13 Sudoeste 0 -- -- 78
2020-07-28 07:00:00 20.1 3 Norte 10 Sur 0 -- -- 77
2020-07-28 06:00:00 21 4 Sur 10 Sudoeste 0 -- -- 73
2020-07-28 05:00:00 22.4 4 Oeste 9 Oeste 0 -- -- 73
2020-07-28 04:00:00 22.5 4 Oeste 13 Oeste 0 -- -- 74
2020-07-28 03:00:00 24.5 2 Este 10 Este 0 -- -- 63
2020-07-28 02:00:00 25.8 7 Sudoeste 23 Oeste 0 -- -- 57
2020-07-28 01:00:00 29.2 14 Este 30 Nordeste 0 -- -- 39
2020-07-28 00:00:00 30 20 Este 40 Este 0 -- -- 38
2020-07-27 23:00:00 30.2 30 Nordeste 41 Nordeste 0 -- -- 42
2020-07-27 22:00:00 31.7 25 Este 38 Este 0 -- -- 43
2020-07-27 21:00:00 33.4 28 Este 40 Este 0 -- -- 36
2020-07-27 20:00:00 35.5 24 Este 40 Este 0 -- -- 30
2020-07-27 19:00:00 36.2 29 Este 42 Este 0 -- -- 32
2020-07-27 18:00:00 37 24 Este 35 Este 0 -- -- 32
2020-07-27 17:00:00 37.4 17 Este 34 Este 0 -- -- 31
2020-07-27 16:00:00 36.7 17 Este 33 Sudeste 0 -- -- 32
2020-07-27 15:00:00 36 14 Sudeste 33 Este 0 -- -- 34
2020-07-27 14:00:00 34 17 Este 31 Sudeste 0 -- -- 36
2020-07-27 13:00:00 31.7 19 Este 37 Este 0 -- -- 42
2020-07-27 12:00:00 29.7 27 Este 40 Este 0 -- -- 45
2020-07-27 09:00:00 -- -- -- -- -- -- -- -- --
2020-07-27 08:00:00 22 27 Este 39 Este 0 -- -- 68
2020-07-27 07:00:00 21.1 26 Este 41 Este 0 -- -- 72
2020-07-27 06:00:00 21.4 21 Este 37 Este 0 -- -- 75
2020-07-27 05:00:00 22 22 Este 33 Este 0 -- -- 71
2020-07-27 04:00:00 22.6 21 Este 35 Este 0 -- -- 70
2020-07-27 03:00:00 23.7 24 Este 35 Este 0 -- -- 73
2020-07-27 02:00:00 25.7 18 Este 28 Nordeste 0 -- -- 62
2020-07-27 01:00:00 26 15 Este 21 Este 0 -- -- 61
2020-07-27 00:00:00 25 11 Nordeste 18 Este 0 -- -- 48
2020-07-26 23:00:00 25.4 11 Nordeste 14 Nordeste 0 -- -- 46
2020-07-26 22:00:00 28.7 0 Calma 12 Oeste 0 -- -- 39
2020-07-26 21:00:00 30.8 10 Oeste 25 Sudoeste 0 -- -- 36
2020-07-26 20:00:00 33.7 8 Sur 16 Sur 0 -- -- 31
2020-07-26 19:00:00 34.4 7 Este 21 Este 0 -- -- 28
2020-07-26 18:00:00 34.9 6 Sur 27 Nordeste 0 -- -- 30
2020-07-26 17:00:00 33.6 9 Oeste 25 Sur 0 -- -- 33
2020-07-26 16:00:00 33.4 6 Sudoeste 23 Oeste 0 -- -- 36
2020-07-26 15:00:00 31.1 12 Oeste 25 Oeste 0 -- -- 40
2020-07-26 14:00:00 29.3 15 Oeste 30 Oeste 0 -- -- 44
2020-07-26 13:00:00 27.5 11 Oeste 24 Oeste 0 -- -- 47
2020-07-26 12:00:00 25.1 14 Oeste 22 Oeste 0 -- -- 51
2020-07-26 11:00:00 22.8 13 Oeste 21 Oeste 0 -- -- 56
2020-07-26 10:00:00 20.7 13 Oeste 19 Sudoeste 0 -- -- 62
2020-07-26 09:00:00 18.5 8 Sudoeste 13 Oeste 0 -- -- 68
2020-07-26 08:00:00 17 3 Oeste 6 Oeste 0 -- -- 73
2020-07-26 07:00:00 17.2 0 Calma 8 Oeste 0 -- -- 74
2020-07-26 06:00:00 17.4 5 Oeste 9 Oeste 0 -- -- 75
2020-07-26 05:00:00 18.7 3 Oeste 10 Noroeste 0 -- -- 73
2020-07-26 04:00:00 19.6 4 Oeste 12 Oeste 0 -- -- 72
2020-07-26 03:00:00 19.8 4 Oeste 14 Oeste 0 -- -- 73
2020-07-26 02:00:00 21 8 Oeste 14 Oeste 0 -- -- 68
2020-07-26 01:00:00 23.2 7 Sudoeste 17 Este 0 -- -- 47
2020-07-26 00:00:00 25.2 10 Nordeste 14 Nordeste 0 -- -- 41
2020-07-25 23:00:00 25.7 8 Nordeste 10 Nordeste 0 -- -- 40
2020-07-25 22:00:00 28.3 6 Nordeste 12 Este 0 -- -- 36
2020-07-25 21:00:00 31.2 4 Sudeste 20 Este 0 -- -- 31
2020-07-25 20:00:00 32.5 15 Este 23 Este 0 -- -- 26
2020-07-25 19:00:00 33.7 10 Sudeste 20 Sudeste 0 -- -- 25
2020-07-25 18:00:00 33.4 5 Oeste 17 Este 0 -- -- 26
2020-07-25 17:00:00 32.9 6 Sudeste 22 Oeste 0 -- -- 27
2020-07-25 16:00:00 32 6 Sur 36 Oeste 0 -- -- 30
2020-07-25 15:00:00 30.9 8 Sudoeste 20 Sudoeste 0 -- -- 29
2020-07-25 14:00:00 28.3 10 Oeste 21 Oeste 0 -- -- 37
2020-07-25 13:00:00 25.2 12 Oeste 21 Sudoeste 0 -- -- 44
2020-07-25 12:00:00 23.6 9 Oeste 17 Oeste 0 -- -- 50
2020-07-25 11:00:00 20.2 8 Oeste 17 Oeste 0 -- -- 59
2020-07-25 10:00:00 17.7 13 Oeste 17 Oeste 0 -- -- 68
2020-07-25 09:00:00 15.4 7 Oeste 13 Oeste 0 -- -- 79
2020-07-25 08:00:00 13.6 3 Noroeste 9 Oeste 0 -- -- 86
2020-07-25 07:00:00 13.2 3 Oeste 10 Noroeste 0 -- -- 84
2020-07-25 06:00:00 13.8 3 Oeste 10 Oeste 0 -- -- 84
2020-07-25 05:00:00 13.9 9 Oeste 17 Oeste 0 -- -- 83
2020-07-25 04:00:00 14.3 9 Oeste 18 Oeste 0 -- -- 82
2020-07-25 03:00:00 15.1 14 Oeste 30 Oeste 0 -- -- 80
2020-07-25 02:00:00 16.2 18 Oeste 29 Oeste 0 -- -- 76
2020-07-25 01:00:00 17.8 27 Noroeste 37 Oeste 0 -- -- 70
2020-07-25 00:00:00 18.3 18 Oeste 39 Noroeste 0 -- -- 69
2020-07-24 23:00:00 20.5 24 Noroeste 35 Oeste 0 -- -- 61
2020-07-24 22:00:00 22.9 15 Noroeste 30 Noroeste 0 -- -- 51
2020-07-24 21:00:00 25.5 20 Noroeste 43 Oeste 0 -- -- 44
2020-07-24 20:00:00 27.4 26 Noroeste 41 Oeste 0 -- -- 37
2020-07-24 19:00:00 28.8 26 Oeste 40 Oeste 0 -- -- 36
2020-07-24 18:00:00 29.3 22 Oeste 34 Oeste 0 -- -- 33
2020-07-24 17:00:00 29.4 21 Oeste 37 Oeste 0 -- -- 34
2020-07-24 16:00:00 28.7 19 Oeste 36 Oeste 0 -- -- 34
2020-07-24 15:00:00 27.8 18 Oeste 33 Oeste 0 -- -- 37
2020-07-24 14:00:00 26.8 17 Oeste 32 Oeste 0 -- -- 40
2020-07-24 13:00:00 24.9 18 Oeste 34 Oeste 0 -- -- 44
2020-07-24 12:00:00 23.1 18 Oeste 33 Oeste 0 -- -- 48
2020-07-24 11:00:00 21 18 Oeste 28 Oeste 0 -- -- 54
2020-07-24 10:00:00 18.9 18 Oeste 30 Oeste 0.2 -- -- 63
2020-07-24 09:00:00 17.3 16 Oeste 26 Oeste 0 -- -- 72
2020-07-24 08:00:00 15.3 12 Oeste 22 Oeste 0 -- -- 80
2020-07-24 07:00:00 15.3 12 Oeste 27 Oeste 0 -- -- 79
2020-07-24 06:00:00 15.7 18 Oeste 26 Oeste 0 -- -- 77
2020-07-24 05:00:00 15.6 12 Oeste 24 Oeste 0.2 -- -- 79
2020-07-24 04:00:00 16.5 15 Oeste 22 Oeste 0.8 -- -- 75
2020-07-24 03:00:00 18.6 13 Oeste 30 Oeste 0 -- -- 60
2020-07-24 02:00:00 19 17 Oeste 32 Oeste 0 -- -- 62
2020-07-24 01:00:00 20.9 16 Oeste 28 Oeste 0 -- -- 63
2020-07-24 00:00:00 22.4 12 Oeste 24 Oeste 0 -- -- 61
2020-07-23 23:00:00 24.8 12 Oeste 20 Oeste 0 -- -- 53
2020-07-23 22:00:00 27 10 Oeste 23 Oeste 0 -- -- 43
2020-07-23 21:00:00 29.3 14 Noroeste 30 Noroeste 0 -- -- 39
2020-07-23 20:00:00 30.8 20 Oeste 35 Noroeste 0 -- -- 41
2020-07-23 19:00:00 32.2 18 Oeste 32 Oeste 0 -- -- 35
2020-07-23 18:00:00 33 13 Oeste 28 Oeste 0 -- -- 31
2020-07-23 17:00:00 31.3 15 Oeste 24 Oeste 0 -- -- 36
2020-07-23 16:00:00 31.3 19 Oeste 30 Sudoeste 0 -- -- 34
2020-07-23 15:00:00 31.9 16 Oeste 29 Oeste 0 -- -- 38
2020-07-23 14:00:00 30.9 18 Oeste 28 Oeste 0 -- -- 40
2020-07-23 13:00:00 29.1 13 Oeste 22 Oeste 0 -- -- 45
2020-07-23 12:00:00 26.9 14 Sudoeste 21 Sudoeste 0 -- -- 53
2020-07-23 11:00:00 24.8 15 Sudoeste 22 Sudoeste 0 -- -- 60
2020-07-23 10:00:00 22.5 14 Sudoeste 20 Sudoeste 0 -- -- 72
2020-07-23 09:00:00 20.3 4 Sudoeste 6 Sudoeste 0 -- -- 77
2020-07-23 08:00:00 18.1 4 Este 9 Este 0 -- -- 73
2020-07-23 07:00:00 16.7 8 Este 11 Este 0 -- -- 69
2020-07-23 06:00:00 17.3 7 Este 9 Este 0 -- -- 66
2020-07-23 05:00:00 18.8 4 Nordeste 7 Nordeste 0 -- -- 59
2020-07-23 04:00:00 20.8 6 Nordeste 17 Nordeste 0 -- -- 53
2020-07-23 03:00:00 22.8 10 Nordeste 14 Nordeste 0 -- -- 47
2020-07-23 02:00:00 23.4 5 Este 18 Este 0 -- -- 46
2020-07-23 01:00:00 24.5 15 Este 19 Este 0 -- -- 42
2020-07-23 00:00:00 25.2 13 Este 19 Este 0 -- -- 39
2020-07-22 23:00:00 25.9 13 Este 19 Este 0 -- -- 37
2020-07-22 22:00:00 28.3 12 Este 23 Este 0 -- -- 34
2020-07-22 21:00:00 30 16 Este 33 Este 0 -- -- 35
2020-07-22 20:00:00 32 20 Este 32 Nordeste 0 -- -- 34
2020-07-22 19:00:00 33.3 11 Sudeste 33 Este 0 -- -- 26
2020-07-22 18:00:00 33.4 16 Este 27 Este 0 -- -- 29
2020-07-22 17:00:00 31.3 12 Sur 22 Sur 0 -- -- 31
2020-07-22 16:00:00 34.4 12 Sudeste 28 Sudeste 0 -- -- 28
2020-07-22 15:00:00 33.2 20 Este 35 Este 0 -- -- 29
2020-07-22 14:00:00 31.6 14 Sudeste 37 Este 0 -- -- 30
2020-07-22 13:00:00 30.2 23 Este 37 Este 0 -- -- 32
2020-07-22 12:00:00 27.9 23 Este 37 Este 0 -- -- 43
2020-07-22 11:00:00 26.9 10 Este 19 Sudeste 0 -- -- 48
2020-07-22 10:00:00 24.4 11 Este 17 Sudeste 0 -- -- 53
2020-07-22 09:00:00 21.4 3 Sur 15 Este 0 -- -- 67
2020-07-22 08:00:00 20.2 13 Este 23 Nordeste 0 -- -- 72
2020-07-22 07:00:00 19.1 6 Este 16 Noroeste 0 -- -- 75
2020-07-22 06:00:00 18.5 9 Nordeste 14 Noroeste 0 -- -- 79
2020-07-22 05:00:00 19.8 8 Noroeste 32 Este 0 -- -- 75
2020-07-22 04:00:00 22 21 Este 30 Nordeste 0 -- -- 59
2020-07-22 03:00:00 20.3 5 Sudeste 10 Oeste 0 -- -- 74
2020-07-22 02:00:00 22.6 6 Este 36 Nordeste 0 -- -- 59
2020-07-22 01:00:00 22.5 18 Este 29 Este 0 -- -- 60
2020-07-22 00:00:00 23 7 Este 22 Sudeste 0.2 -- -- 65
2020-07-21 23:00:00 22.8 8 Nordeste 56 Sudeste 1.4 -- -- 62
2020-07-21 22:00:00 28.9 4 Oeste 22 Este 0 -- -- 41
2020-07-21 21:00:00 30 12 Este 30 Este 0 -- -- 36
2020-07-21 20:00:00 31.1 21 Este 41 Sudeste 0 -- -- 35
2020-07-21 19:00:00 32.3 24 Este 47 Este 0 -- -- 37
2020-07-21 18:00:00 33.4 28 Este 45 Este 0 -- -- 34
2020-07-21 17:00:00 34.5 25 Este 42 Este 0 -- -- 33
2020-07-21 16:00:00 34.4 23 Este 54 Este 0 -- -- 33
2020-07-21 15:00:00 33.7 21 Este 35 Este 0 -- -- 34
2020-07-21 14:00:00 31.8 16 Sudeste 39 Este 0 -- -- 38
2020-07-21 13:00:00 30.2 27 Este 39 Este 0 -- -- 38
2020-07-21 12:00:00 28.2 26 Este 34 Este 0 -- -- 43
2020-07-21 11:00:00 26.2 22 Este 36 Este 0 -- -- 52
2020-07-21 10:00:00 24.3 22 Este 30 Este 0 -- -- 56
2020-07-21 09:00:00 23.1 13 Este 23 Este 0 -- -- 59
2020-07-21 08:00:00 20.5 4 Este 18 Este 0 -- -- 74
2020-07-21 07:00:00 19.7 3 Nordeste 17 Este 0 -- -- 65
2020-07-21 06:00:00 20.3 5 Este 20 Nordeste 0 -- -- 62
2020-07-21 05:00:00 20.6 14 Este 20 Nordeste 0 -- -- 60
2020-07-21 04:00:00 20.9 11 Este 24 Nordeste 0 -- -- 60
2020-07-21 03:00:00 21.2 6 Este 30 Este 0 -- -- 61
2020-07-21 02:00:00 22.6 23 Este 35 Este 0 -- -- 55
2020-07-21 01:00:00 23.5 21 Este 38 Este 0 -- -- 53
2020-07-21 00:00:00 25.3 28 Este 48 Este 0 -- -- 49
2020-07-20 23:00:00 26.1 32 Este 55 Este 0 -- -- 53
2020-07-20 22:00:00 27 34 Este 51 Este 0 -- -- 52
2020-07-20 21:00:00 28.8 31 Este 49 Este 0 -- -- 52
2020-07-20 20:00:00 30.7 31 Este 48 Este 0 -- -- 45
2020-07-20 19:00:00 32.3 28 Este 46 Este 0 -- -- 42
2020-07-20 18:00:00 32.8 32 Este 44 Este 0 -- -- 42
2020-07-20 17:00:00 33.8 25 Este 41 Este 0 -- -- 38
2020-07-20 16:00:00 33.5 22 Este 36 Este 0 -- -- 38
2020-07-20 15:00:00 32.5 18 Este 35 Este 0 -- -- 40
2020-07-20 14:00:00 31.5 12 Sudeste 36 Este 0 -- -- 42
2020-07-20 13:00:00 30.2 21 Este 35 Este 0 -- -- 42
2020-07-20 12:00:00 29.1 15 Este 30 Este 0 -- -- 42
2020-07-20 11:00:00 27.7 14 Este 26 Este 0 -- -- 43
2020-07-20 10:00:00 25.7 14 Este 22 Este 0 -- -- 49
2020-07-20 09:00:00 23.2 5 Este 9 Este 0 -- -- 60
2020-07-20 08:00:00 19.6 7 Este 12 Nordeste 0 -- -- 74
2020-07-20 07:00:00 18.7 6 Nordeste 11 Este 0 -- -- 77
2020-07-20 06:00:00 20.3 0 Calma 13 Noroeste 0 -- -- 72
2020-07-20 05:00:00 21 5 Oeste 43 Este 0 -- -- 70
2020-07-20 04:00:00 21.8 26 Este 35 Este 0 -- -- 67
2020-07-20 03:00:00 22 27 Este 40 Este 0 -- -- 73
2020-07-20 02:00:00 23.3 27 Este 38 Este 0 -- -- 70
2020-07-20 01:00:00 25.1 24 Este 33 Este 0 -- -- 63
2020-07-20 00:00:00 26.1 18 Este 26 Este 0 -- -- 58
2020-07-19 23:00:00 27.4 17 Este 23 Este 0 -- -- 55
2020-07-19 22:00:00 28.9 17 Este 28 Este 0 -- -- 44
2020-07-19 21:00:00 31.3 21 Este 36 Este 0 -- -- 36
2020-07-19 20:00:00 33.3 18 Este 29 Este 0 -- -- 33
2020-07-19 19:00:00 34.4 7 Sudeste 26 Este 0 -- -- 28
2020-07-19 18:00:00 35 7 Sur 19 Noroeste 0 -- -- 26
2020-07-19 17:00:00 34.5 6 Este 20 Sudeste 0 -- -- 29
2020-07-19 16:00:00 34.4 9 Sudoeste 22 Este 0 -- -- 30
2020-07-19 15:00:00 32.9 10 Sudeste 23 Este 0 -- -- 34
2020-07-19 14:00:00 -- 10 Este 21 Este 0 -- -- --
2020-07-19 13:00:00 30.3 11 Este 25 Este 0 -- -- 45
2020-07-19 12:00:00 28.4 15 Este 24 Este 0 -- -- 52
2020-07-19 11:00:00 26.5 15 Este 23 Este 0 -- -- 58
2020-07-19 10:00:00 23.9 15 Este 24 Este 0 -- -- 68
2020-07-19 09:00:00 21.5 16 Sudeste 24 Sudeste 0 -- -- 77
2020-07-19 08:00:00 19.5 14 Este 22 Este 0 -- -- 85
2020-07-19 07:00:00 18.7 13 Este 24 Este 0 -- -- 87
2020-07-19 06:00:00 19.1 19 Este 24 Este 0 -- -- 86
2020-07-19 05:00:00 19.7 19 Este 27 Este 0 -- -- 81
2020-07-19 04:00:00 19.8 13 Este 21 Este 0 -- -- 70
2020-07-19 03:00:00 21 9 Nordeste 15 Nordeste 0 -- -- 57
2020-07-19 02:00:00 19.9 9 Nordeste 15 Nordeste 0 -- -- 60
2020-07-19 01:00:00 21.3 12 Nordeste 17 Nordeste 0 -- -- 51
2020-07-19 00:00:00 -- -- -- -- -- -- -- -- --
2020-07-18 23:00:00 23.2 9 Nordeste 12 Nordeste 0 -- -- 38
2020-07-18 22:00:00 26.4 2 Nordeste 7 Noroeste 0 -- -- 34
2020-07-18 21:00:00 30.2 6 Noroeste 15 Oeste 0 -- -- 30
2020-07-18 20:00:00 30.9 13 Oeste 26 Oeste 0 -- -- 28
2020-07-18 19:00:00 31.4 15 Oeste 30 Oeste 0 -- -- 27
2020-07-18 18:00:00 31.5 14 Oeste 26 Sudoeste 0 -- -- 29
2020-07-18 17:00:00 -- 15 Oeste 28 Sudoeste 0 -- -- --
2020-07-18 16:00:00 30.2 16 Oeste 32 Oeste 0 -- -- 32
2020-07-18 15:00:00 28.7 17 Oeste 28 Oeste 0 -- -- 36
2020-07-18 14:00:00 26.9 13 Oeste 26 Oeste 0 -- -- 41
2020-07-18 13:00:00 24.3 15 Sudoeste 25 Sudoeste 0 -- -- 49
2020-07-18 12:00:00 22.3 8 Oeste 21 Oeste 0 -- -- 53
2020-07-18 11:00:00 20.3 15 Oeste 23 Sudoeste 0 -- -- 58
2020-07-18 10:00:00 18.5 13 Oeste 17 Oeste 0 -- -- 67
2020-07-18 09:00:00 16.3 13 Oeste 19 Oeste 0 -- -- 76
2020-07-18 08:00:00 14.5 3 Oeste 10 Oeste 0 -- -- 82
2020-07-18 07:00:00 13.9 3 Oeste 6 Noroeste 0 -- -- 83
2020-07-18 06:00:00 14.1 0 Calma 8 Oeste 0 -- -- 83
2020-07-18 05:00:00 14.5 5 Noroeste 11 Oeste 0 -- -- 81
2020-07-18 04:00:00 14.5 9 Oeste 13 Oeste 0 -- -- 81
2020-07-18 03:00:00 14.7 9 Oeste 18 Oeste 0 -- -- 81
2020-07-18 02:00:00 15.2 10 Oeste 14 Oeste 0 -- -- 80
2020-07-18 01:00:00 15.5 12 Oeste 34 Noroeste 0 -- -- 78
2020-07-18 00:00:00 16.7 20 Oeste 36 Noroeste 0 -- -- 75
2020-07-17 23:00:00 17.8 19 Noroeste 36 Oeste 0 -- -- 69
2020-07-17 22:00:00 19.2 23 Oeste 38 Oeste 0 -- -- 63
2020-07-17 21:00:00 21.2 24 Oeste 42 Oeste 0 -- -- 57
2020-07-17 20:00:00 23.8 26 Oeste 45 Oeste 0 -- -- 46
2020-07-17 19:00:00 24.5 30 Oeste 45 Oeste 0 -- -- 42
2020-07-17 18:00:00 25.5 29 Oeste 53 Oeste 0 -- -- 41
2020-07-17 17:00:00 25.3 29 Oeste 47 Noroeste 0 -- -- 43
2020-07-17 16:00:00 25.1 26 Oeste 46 Oeste 0 -- -- 42
2020-07-17 15:00:00 24.6 26 Oeste 49 Oeste 0 -- -- 44
2020-07-17 14:00:00 23.1 25 Oeste 43 Oeste 0 -- -- 48
2020-07-17 13:00:00 22.3 23 Oeste 39 Oeste 0 -- -- 51
2020-07-17 12:00:00 20.7 28 Oeste 41 Oeste 0 -- -- 56
2020-07-17 11:00:00 19.3 22 Oeste 44 Oeste 0 -- -- 61
2020-07-17 10:00:00 17.4 19 Oeste 35 Noroeste 0 -- -- 67
2020-07-17 09:00:00 15.6 14 Oeste 32 Oeste 0 -- -- 75
2020-07-17 08:00:00 13.7 18 Oeste 26 Oeste 0 -- -- 83
2020-07-17 07:00:00 12.6 14 Oeste 27 Noroeste 0 -- -- 88
2020-07-17 06:00:00 13.1 14 Oeste 23 Sudoeste 0 -- -- 87
2020-07-17 05:00:00 13.7 17 Oeste 30 Oeste 0 -- -- 84
2020-07-17 04:00:00 13.8 19 Oeste 41 Oeste 0 -- -- 84
2020-07-17 03:00:00 13.8 19 Oeste 31 Noroeste 0 -- -- 84
2020-07-17 02:00:00 14.2 23 Oeste 44 Oeste 0 -- -- 82
2020-07-17 01:00:00 14.4 21 Oeste 33 Noroeste 0 -- -- 79
2020-07-17 00:00:00 15.6 25 Oeste 39 Noroeste 0 -- -- 73
2020-07-16 23:00:00 16.7 22 Oeste 34 Oeste 0 -- -- 70
2020-07-16 22:00:00 18.7 15 Oeste 32 Oeste 0 -- -- 66
2020-07-16 21:00:00 21.4 18 Oeste 32 Noroeste 0 -- -- 58
2020-07-16 20:00:00 23.9 20 Oeste 40 Oeste 0 -- -- 52
2020-07-16 19:00:00 25.1 26 Oeste 43 Oeste 0 -- -- 49
2020-07-16 18:00:00 25.9 24 Oeste 44 Oeste 0 -- -- 46
2020-07-16 17:00:00 26.5 22 Oeste 39 Oeste 0 -- -- 44
2020-07-16 16:00:00 26 23 Oeste 39 Oeste 0 -- -- 43
2020-07-16 15:00:00 25.4 24 Oeste 38 Oeste 0 -- -- 44
2020-07-16 14:00:00 24.3 21 Oeste 35 Oeste 0 -- -- 45
2020-07-16 13:00:00 22.6 19 Oeste 40 Oeste 0 -- -- 50
2020-07-16 12:00:00 20.7 19 Noroeste 34 Oeste 0 -- -- 53
2020-07-16 11:00:00 19 17 Oeste 31 Oeste 0 -- -- 58
2020-07-16 10:00:00 17.3 20 Oeste 32 Oeste 0 -- -- 64
2020-07-16 09:00:00 15.3 20 Oeste 30 Oeste 0 -- -- 73
2020-07-16 08:00:00 13.6 15 Oeste 25 Noroeste 0 -- -- 80
2020-07-16 07:00:00 13.3 19 Oeste 28 Oeste 0 -- -- 80
2020-07-16 06:00:00 13.4 13 Oeste 27 Oeste 0 -- -- 78
2020-07-16 05:00:00 13.9 17 Oeste 34 Oeste 0 -- -- 75
2020-07-16 04:00:00 13.9 12 Oeste 38 Oeste 0 -- -- 76
2020-07-16 03:00:00 14.1 26 Oeste 37 Oeste 0 -- -- 74
2020-07-16 02:00:00 -- 18 Oeste 32 Oeste 0 -- -- --
2020-07-16 01:00:00 15.2 14 Oeste 43 Noroeste 0 -- -- 65
2020-07-16 00:00:00 16 25 Noroeste 40 Noroeste 0 -- -- 61
2020-07-15 23:00:00 16.7 24 Noroeste 46 Noroeste 0 -- -- 58
2020-07-15 22:00:00 18 23 Noroeste 41 Oeste 0 -- -- 54
2020-07-15 21:00:00 19.9 18 Noroeste 39 Oeste 0 -- -- 50
2020-07-15 20:00:00 21.6 24 Noroeste 52 Oeste 0 -- -- 45
2020-07-15 19:00:00 22.2 27 Noroeste 50 Noroeste 0 -- -- 45
2020-07-15 18:00:00 22.6 28 Oeste 49 Oeste 0 -- -- 47
2020-07-15 17:00:00 22.4 24 Noroeste 56 Oeste 0 -- -- 49
2020-07-15 16:00:00 23.2 28 Oeste 57 Oeste 0 -- -- 47
2020-07-15 15:00:00 22.8 33 Oeste 52 Oeste 0 -- -- 51
2020-07-15 14:00:00 23.1 27 Noroeste 49 Oeste 0 -- -- 50
2020-07-15 13:00:00 21.7 27 Oeste 46 Oeste 0 -- -- 56
2020-07-15 12:00:00 20.1 23 Oeste 42 Oeste 0 -- -- 61
2020-07-15 11:00:00 19.9 22 Noroeste 44 Oeste 0 -- -- 60
2020-07-15 10:00:00 16.7 21 Oeste 34 Oeste 0 -- -- 68
2020-07-15 09:00:00 14.3 24 Oeste 40 Noroeste 0 -- -- 74
2020-07-15 08:00:00 12.7 21 Oeste 34 Oeste 0 -- -- 79
2020-07-15 07:00:00 11.9 13 Oeste 30 Oeste 0 -- -- 78
2020-07-15 06:00:00 12.4 18 Oeste 31 Noroeste 0 -- -- 77
2020-07-15 05:00:00 12.8 17 Oeste 31 Oeste 0 -- -- 77
2020-07-15 04:00:00 13.1 22 Oeste 39 Oeste 0 -- -- 77
2020-07-15 03:00:00 13.5 22 Oeste 34 Oeste 0 -- -- 74
2020-07-15 02:00:00 13.8 22 Oeste 37 Oeste 0 -- -- 73
2020-07-15 01:00:00 14.1 18 Oeste 31 Oeste 0 -- -- 67
2020-07-15 00:00:00 15 22 Oeste 32 Oeste 0 -- -- 59
2020-07-14 23:00:00 16.9 13 Oeste 34 Oeste 0 -- -- 49
2020-07-14 22:00:00 19 9 Oeste 31 Oeste 0 -- -- 51
2020-07-14 21:00:00 21.8 19 Oeste 33 Oeste 0 -- -- 48
2020-07-14 20:00:00 24.7 18 Oeste 32 Oeste 0 -- -- 38
2020-07-14 19:00:00 26.1 23 Oeste 36 Oeste 0 -- -- 36
2020-07-14 18:00:00 26.7 15 Oeste 38 Oeste 0 -- -- 36
2020-07-14 17:00:00 25.8 22 Oeste 37 Oeste 0 -- -- 39
2020-07-14 16:00:00 24.2 22 Oeste 39 Oeste 0 -- -- 40
2020-07-14 15:00:00 23.9 20 Oeste 35 Oeste 0 -- -- 42
2020-07-14 14:00:00 23.1 18 Oeste 35 Oeste 0 -- -- 45
2020-07-14 13:00:00 22.6 22 Oeste 33 Oeste 0 -- -- 47
2020-07-14 12:00:00 20.5 19 Oeste 30 Oeste 0 -- -- 52
2020-07-14 11:00:00 18.6 17 Oeste 30 Oeste 0 -- -- 55
2020-07-14 10:00:00 16.7 17 Oeste 26 Noroeste 0 -- -- 65
2020-07-14 09:00:00 14.8 16 Oeste 23 Oeste 0 -- -- 71
2020-07-14 08:00:00 13.9 15 Oeste 23 Oeste 0 -- -- 75
2020-07-14 07:00:00 13 11 Oeste 21 Oeste 0 -- -- 76
2020-07-14 06:00:00 13.1 10 Oeste 27 Oeste 0 -- -- 76
2020-07-14 05:00:00 14.2 16 Oeste 29 Oeste 0 -- -- 74
2020-07-14 04:00:00 14.3 18 Oeste 31 Oeste 0 -- -- 71
2020-07-14 03:00:00 14.1 14 Oeste 32 Oeste 0 -- -- 69
2020-07-14 02:00:00 15.1 17 Oeste 30 Oeste 0 -- -- 68
2020-07-14 01:00:00 16.3 18 Noroeste 37 Oeste 0 -- -- 61
2020-07-14 00:00:00 17.1 21 Oeste 45 Oeste 0 -- -- 57